createdAt,value
2023-10-17T00:02:28.093Z,39.50
2023-10-17T00:05:05.462Z,36.60
2023-10-17T00:08:08.420Z,35.90
2023-10-17T00:10:50.114Z,38.60
2023-10-17T00:13:44.177Z,35.20
2023-10-17T00:16:39.030Z,33.00
2023-10-17T00:19:21.813Z,31.80
2023-10-17T00:22:20.273Z,33.30
2023-10-17T00:24:58.429Z,38.80
2023-10-17T00:27:27.904Z,40.10
2023-10-17T00:30:08.693Z,42.90
2023-10-17T00:33:02.652Z,40.50
2023-10-17T00:35:45.472Z,39.10
2023-10-17T00:38:26.067Z,40.80
2023-10-17T00:41:13.374Z,42.50
2023-10-17T00:43:48.356Z,44.00
2023-10-17T00:46:36.360Z,42.20
2023-10-17T00:49:27.624Z,39.60
2023-10-17T00:52:11.547Z,38.00
2023-10-17T00:58:00.247Z,38.10
2023-10-17T01:00:38.185Z,37.10
2023-10-17T01:03:28.124Z,37.60
2023-10-17T01:06:22.646Z,38.30
2023-10-17T01:09:23.106Z,33.90
2023-10-17T01:12:35.422Z,36.00
2023-10-17T01:15:31.183Z,35.30
2023-10-17T01:18:16.387Z,31.20
2023-10-17T01:20:55.621Z,32.10
2023-10-17T01:23:47.304Z,29.60
2023-10-17T01:26:52.217Z,29.30
2023-10-17T01:29:27.161Z,29.90
2023-10-17T01:31:58.220Z,34.30
2023-10-17T01:34:30.303Z,34.70
2023-10-17T01:37:10.463Z,33.60
2023-10-17T01:39:51.066Z,46.60
2023-10-17T01:42:24.853Z,35.50
2023-10-17T01:45:29.168Z,44.80
2023-10-17T01:48:01.368Z,50.80
2023-10-17T01:50:41.271Z,43.10
2023-10-17T01:53:31.963Z,30.30
2023-10-17T01:56:34.858Z,29.40
2023-10-17T01:59:36.350Z,25.90
2023-10-17T02:02:30.549Z,30.50
2023-10-17T02:05:25.809Z,31.70
2023-10-17T02:08:22.317Z,58.80
2023-10-17T02:11:03.496Z,59.30
2023-10-17T02:13:44.689Z,62.20
2023-10-17T02:16:47.314Z,53.60
2023-10-17T02:19:30.491Z,52.10
2023-10-17T02:22:17.955Z,53.10
2023-10-17T02:25:03.454Z,48.60
2023-10-17T02:27:49.154Z,46.60
2023-10-17T02:30:33.427Z,51.90
2023-10-17T02:33:45.630Z,63.90
2023-10-17T02:36:42.042Z,94.50
2023-10-17T02:39:29.369Z,103.50
2023-10-17T02:42:12.269Z,60.30
2023-10-17T02:44:58.703Z,50.20
2023-10-17T02:47:45.329Z,59.40
2023-10-17T02:50:28.532Z,48.00
2023-10-17T02:53:11.467Z,40.50
2023-10-17T02:55:44.073Z,49.20
2023-10-17T02:58:19.712Z,74.60
2023-10-17T03:00:57.060Z,57.50
2023-10-17T03:03:37.595Z,35.20
2023-10-17T03:06:19.707Z,79.60
2023-10-17T03:09:01.156Z,101.50
2023-10-17T03:11:39.698Z,115.30
2023-10-17T03:14:25.743Z,103.10
2023-10-17T03:17:05.645Z,56.10
2023-10-17T03:19:46.172Z,40.90
2023-10-17T03:22:26.209Z,31.70
2023-10-17T03:25:35.777Z,37.90
2023-10-17T03:28:12.232Z,40.70
2023-10-17T03:30:56.920Z,37.30
2023-10-17T03:33:42.080Z,33.70
2023-10-17T03:36:35.077Z,35.50
2023-10-17T03:39:30.391Z,25.90
2023-10-17T03:42:48.668Z,25.80
2023-10-17T03:45:26.793Z,28.80
2023-10-17T03:48:14.844Z,33.10
2023-10-17T03:51:12.896Z,42.80
2023-10-17T03:56:57.763Z,27.70
2023-10-17T04:00:19.102Z,27.10
2023-10-17T04:03:21.433Z,32.30
2023-10-17T04:06:13.993Z,33.80
2023-10-17T04:09:28.422Z,31.90
2023-10-17T04:12:07.430Z,31.60
2023-10-17T04:15:10.188Z,32.20
2023-10-17T04:17:53.840Z,37.40
2023-10-17T04:20:35.554Z,41.40
2023-10-17T04:23:30.885Z,46.10
2023-10-17T04:26:01.092Z,45.80
2023-10-17T04:29:03.794Z,48.70
2023-10-17T04:31:45.358Z,45.60
2023-10-17T04:34:32.479Z,42.40
2023-10-17T04:37:20.269Z,36.20
2023-10-17T04:40:23.434Z,38.50
2023-10-17T04:49:23.142Z,37.90
2023-10-17T04:52:30.285Z,38.40
2023-10-17T04:55:40.099Z,39.20
2023-10-17T04:58:32.840Z,32.70
2023-10-17T05:01:39.836Z,38.90
2023-10-17T05:04:36.919Z,36.10
2023-10-17T05:07:27.784Z,36.00
2023-10-17T05:10:21.764Z,36.40
2023-10-17T05:13:18.189Z,41.10
2023-10-17T05:16:16.699Z,36.80
2023-10-17T05:19:18.563Z,38.70
2023-10-17T05:22:10.741Z,35.30
2023-10-17T05:25:34.272Z,35.80
2023-10-17T05:28:37.004Z,29.80
2023-10-17T05:31:38.526Z,33.90
2023-10-17T05:34:40.169Z,30.20
2023-10-17T05:37:28.764Z,27.90
2023-10-17T05:40:25.639Z,27.00
2023-10-17T05:43:31.618Z,27.50
2023-10-17T05:46:43.789Z,24.80
2023-10-17T05:49:31.743Z,23.10
2023-10-17T05:52:28.921Z,26.30
2023-10-17T05:55:28.908Z,25.80
2023-10-17T05:58:46.999Z,26.40
2023-10-17T06:01:41.157Z,28.90
2023-10-17T06:04:37.425Z,26.30
2023-10-17T06:07:37.544Z,26.50
2023-10-17T06:10:36.915Z,27.30
2023-10-17T06:13:24.689Z,27.30
2023-10-17T06:16:12.291Z,26.30
2023-10-17T06:19:11.479Z,31.00
2023-10-17T06:22:03.059Z,51.40
2023-10-17T06:25:29.786Z,29.90
2023-10-17T06:28:44.433Z,34.40
2023-10-17T06:31:48.211Z,36.80
2023-10-17T06:37:57.225Z,36.20
2023-10-17T06:41:40.685Z,32.70
2023-10-17T06:44:28.281Z,36.50
2023-10-17T06:47:33.255Z,37.90
2023-10-17T06:50:28.651Z,35.20
2023-10-17T06:53:33.857Z,35.60
2023-10-17T06:56:16.153Z,35.40
2023-10-17T06:59:28.528Z,35.00
2023-10-17T07:02:20.521Z,38.00
2023-10-17T07:05:36.407Z,37.40
2023-10-17T07:08:43.004Z,31.70
2023-10-17T07:11:32.862Z,30.50
2023-10-17T07:14:36.362Z,30.90
2023-10-17T07:17:29.977Z,36.70
2023-10-17T07:20:39.063Z,37.80
2023-10-17T07:23:21.545Z,35.80
2023-10-17T07:26:00.983Z,37.60
2023-10-17T07:28:47.399Z,37.70
2023-10-17T07:31:32.304Z,36.00
2023-10-17T07:34:12.485Z,39.90
2023-10-17T07:36:54.894Z,37.50
2023-10-17T07:39:49.683Z,40.30
2023-10-17T07:42:55.591Z,44.10
2023-10-17T07:46:48.535Z,39.70
2023-10-17T07:49:38.943Z,39.90
2023-10-17T07:52:39.083Z,35.50
2023-10-17T07:56:05.031Z,28.90
2023-10-17T07:59:13.828Z,29.40
2023-10-17T08:01:47.639Z,28.90
2023-10-17T08:04:48.654Z,26.10
2023-10-17T08:07:34.200Z,29.60
2023-10-17T08:10:13.066Z,25.60
2023-10-17T08:12:45.288Z,24.80
2023-10-17T08:15:25.977Z,27.10
2023-10-17T08:18:07.173Z,27.90
2023-10-17T08:20:58.848Z,27.90
2023-10-17T08:23:31.350Z,33.70
2023-10-17T08:26:08.449Z,29.70
2023-10-17T08:28:48.795Z,33.70
2023-10-17T08:31:21.714Z,25.30
2023-10-17T08:34:05.820Z,24.20
2023-10-17T08:36:43.254Z,22.20
2023-10-17T08:39:31.172Z,26.60
2023-10-17T08:42:13.610Z,20.10
2023-10-17T08:44:51.338Z,17.80
2023-10-17T08:47:32.120Z,18.90
2023-10-17T08:50:09.626Z,16.50
2023-10-17T08:52:41.680Z,17.00
2023-10-17T08:55:16.794Z,17.20
2023-10-17T08:57:49.958Z,17.50
2023-10-17T09:00:40.653Z,18.30
2023-10-17T09:03:11.251Z,25.30
2023-10-17T09:06:16.390Z,22.30
2023-10-17T09:09:05.333Z,23.30
2023-10-17T09:11:36.507Z,20.80
2023-10-17T09:14:28.911Z,19.60
2023-10-17T09:17:19.382Z,19.60
2023-10-17T09:19:55.395Z,16.20
2023-10-17T09:22:26.356Z,16.50
2023-10-17T09:25:08.587Z,17.70
2023-10-17T09:27:53.922Z,19.70
2023-10-17T09:30:30.445Z,16.20
2023-10-17T09:33:00.947Z,16.30
2023-10-17T09:35:32.097Z,14.00
2023-10-17T09:38:32.240Z,15.00
2023-10-17T09:41:18.140Z,14.60
2023-10-17T09:46:37.864Z,13.30
2023-10-17T09:49:19.469Z,13.30
2023-10-17T09:51:58.609Z,14.10
2023-10-17T09:54:45.387Z,12.60
2023-10-17T09:57:26.627Z,11.50
2023-10-17T10:00:47.601Z,8.90
2023-10-17T10:03:21.141Z,9.60
2023-10-17T10:05:56.488Z,9.90
2023-10-17T10:08:34.554Z,10.10
2023-10-17T10:11:11.097Z,9.10
2023-10-17T10:14:04.766Z,13.30
2023-10-17T10:16:53.869Z,10.50
2023-10-17T10:19:48.110Z,9.40
2023-10-17T10:22:23.360Z,11.10
2023-10-17T10:25:07.384Z,11.90
2023-10-17T10:27:37.749Z,11.30
2023-10-17T10:30:45.426Z,10.30
2023-10-17T10:33:17.538Z,10.00
2023-10-17T10:35:48.374Z,11.30
2023-10-17T10:38:23.984Z,7.50
2023-10-17T10:40:54.953Z,8.50
2023-10-17T10:43:28.123Z,8.70
2023-10-17T10:46:02.790Z,7.30
2023-10-17T10:48:49.941Z,15.50
2023-10-17T10:51:31.601Z,9.80
2023-10-17T10:54:10.591Z,6.10
2023-10-17T10:56:55.094Z,6.80
2023-10-17T10:59:31.355Z,7.60
2023-10-17T11:02:02.881Z,7.30
2023-10-17T11:04:33.703Z,5.50
2023-10-17T11:07:26.696Z,6.60
2023-10-17T11:10:14.630Z,6.40
2023-10-17T11:12:54.843Z,5.30
2023-10-17T11:15:34.152Z,4.90
2023-10-17T11:18:21.056Z,4.80
2023-10-17T11:20:57.428Z,4.30
2023-10-17T11:23:30.810Z,4.60
2023-10-17T11:26:26.648Z,7.10
2023-10-17T11:29:06.942Z,9.50
2023-10-17T11:31:45.289Z,5.60
2023-10-17T11:34:35.963Z,6.40
2023-10-17T11:37:14.974Z,4.10
2023-10-17T11:39:47.656Z,3.80
2023-10-17T11:42:35.487Z,3.00
2023-10-17T11:47:59.134Z,3.40
2023-10-17T11:50:38.110Z,4.50
2023-10-17T11:53:22.911Z,3.50
2023-10-17T11:55:58.290Z,3.90
2023-10-17T11:58:32.976Z,4.70
2023-10-17T12:01:04.513Z,3.50
2023-10-17T12:06:19.384Z,3.60
2023-10-17T12:08:49.924Z,3.60
2023-10-17T12:11:27.290Z,3.00
2023-10-17T12:13:59.047Z,3.00
2023-10-17T12:16:29.992Z,3.40
2023-10-17T12:19:02.021Z,4.20
2023-10-17T12:21:36.084Z,3.70
2023-10-17T12:24:13.438Z,3.90
2023-10-17T12:26:57.436Z,4.70
2023-10-17T12:29:31.334Z,4.50
2023-10-17T12:32:36.472Z,4.80
2023-10-17T12:42:20.817Z,4.60
2023-10-17T12:44:57.382Z,3.40
2023-10-17T12:47:30.850Z,3.00
2023-10-17T12:50:10.778Z,3.20
2023-10-17T12:52:47.262Z,2.60
2023-10-17T12:55:22.734Z,2.80
2023-10-17T12:57:58.123Z,2.10
2023-10-17T13:00:52.780Z,2.50
2023-10-17T13:03:55.297Z,1.90
2023-10-17T13:06:46.458Z,2.20
2023-10-17T13:09:51.184Z,2.70
2023-10-17T13:12:32.645Z,2.20
2023-10-17T13:15:12.826Z,3.40
2023-10-17T13:18:18.231Z,4.80
2023-10-17T13:21:08.630Z,3.60
2023-10-17T13:23:53.791Z,3.70
2023-10-17T13:26:27.160Z,3.30
2023-10-17T13:29:00.828Z,3.40
2023-10-17T13:34:28.336Z,3.50
2023-10-17T13:37:05.968Z,3.60
2023-10-17T13:43:14.150Z,4.50
2023-10-17T13:46:13.914Z,5.00
2023-10-17T13:48:52.426Z,4.40
2023-10-17T13:52:03.326Z,5.40
2023-10-17T13:54:39.119Z,4.10
2023-10-17T13:57:33.087Z,4.00
2023-10-17T14:00:22.101Z,4.20
2023-10-17T14:03:04.119Z,4.70
2023-10-17T14:06:05.648Z,3.00
2023-10-17T14:08:44.205Z,3.10
2023-10-17T14:11:27.851Z,4.00
2023-10-17T14:14:01.545Z,6.70
2023-10-17T14:16:43.266Z,4.10
2023-10-17T14:19:48.277Z,5.90
2023-10-17T14:22:48.815Z,4.20
2023-10-17T14:25:48.665Z,3.10
2023-10-17T14:28:24.109Z,3.80
2023-10-17T14:31:13.152Z,3.80
2023-10-17T14:33:48.304Z,3.50
2023-10-17T14:36:21.226Z,3.20
2023-10-17T14:39:02.698Z,4.20
2023-10-17T14:41:41.687Z,3.10
2023-10-17T14:44:18.042Z,3.80
2023-10-17T14:50:28.392Z,18.90
2023-10-17T14:53:07.409Z,8.80
2023-10-17T14:55:44.849Z,9.00
2023-10-17T14:58:16.177Z,47.90
2023-10-17T15:00:53.316Z,72.40
2023-10-17T15:03:28.900Z,31.40
2023-10-17T15:06:13.659Z,16.20
2023-10-17T15:08:45.334Z,27.20
2023-10-17T15:11:16.206Z,30.50
2023-10-17T15:13:50.430Z,32.60
2023-10-17T15:16:22.127Z,36.40
2023-10-17T15:18:56.587Z,41.40
2023-10-17T15:21:29.895Z,40.90
2023-10-17T15:24:04.961Z,31.20
2023-10-17T15:26:43.846Z,45.60
2023-10-17T15:29:26.958Z,44.50
2023-10-17T15:32:06.633Z,62.40
2023-10-17T15:34:37.384Z,35.50
2023-10-17T15:37:07.826Z,33.30
2023-10-17T15:39:39.147Z,35.30
2023-10-17T15:42:21.456Z,31.60
2023-10-17T15:45:03.802Z,29.20
2023-10-17T15:47:37.421Z,33.30
2023-10-17T15:50:08.633Z,35.80
2023-10-17T15:52:55.745Z,41.40
2023-10-17T15:55:28.513Z,38.30
2023-10-17T15:58:04.343Z,42.00
2023-10-17T16:00:37.717Z,51.90
2023-10-17T16:03:18.188Z,47.10
2023-10-17T16:06:07.256Z,42.50
2023-10-17T16:08:40.424Z,33.70
2023-10-17T16:11:49.871Z,28.90
2023-10-17T16:14:23.596Z,26.80
2023-10-17T16:16:56.416Z,26.60
2023-10-17T16:19:33.130Z,45.70
2023-10-17T16:22:20.171Z,54.50
2023-10-17T16:25:38.665Z,63.50
2023-10-17T16:28:22.121Z,90.40
2023-10-17T16:30:57.287Z,76.80
2023-10-17T16:33:35.923Z,72.70
2023-10-17T16:36:17.990Z,56.50
2023-10-17T16:38:55.155Z,50.30
2023-10-17T16:41:27.532Z,48.90
2023-10-17T16:46:30.926Z,48.90
2023-10-17T16:49:05.257Z,49.60
2023-10-17T16:54:32.845Z,39.90
2023-10-17T16:57:06.445Z,33.20
2023-10-17T16:59:37.386Z,30.40
2023-10-17T17:02:14.482Z,28.70
2023-10-17T17:04:47.485Z,34.50
2023-10-17T17:07:22.198Z,36.00
2023-10-17T17:10:03.547Z,36.40
2023-10-17T17:12:34.890Z,37.80
2023-10-17T17:15:17.466Z,35.30
2023-10-17T17:20:33.500Z,32.10
2023-10-17T17:23:18.332Z,32.50
2023-10-17T17:27:32.344Z,34.30
2023-10-17T17:30:31.642Z,36.30
2023-10-17T17:33:06.033Z,45.10
2023-10-17T17:35:36.912Z,50.00
2023-10-17T17:38:10.184Z,52.40
2023-10-17T17:40:43.236Z,51.00
2023-10-17T17:43:14.505Z,51.80
2023-10-17T17:45:45.386Z,51.70
2023-10-17T17:48:15.689Z,52.00
2023-10-17T17:50:48.342Z,58.80
2023-10-17T17:53:21.133Z,59.30
2023-10-17T17:55:53.522Z,71.90
2023-10-17T17:58:28.038Z,71.90
2023-10-17T18:01:01.632Z,68.40
2023-10-17T18:03:35.243Z,69.90
2023-10-17T18:06:21.996Z,70.90
2023-10-17T18:08:58.548Z,68.90
2023-10-17T18:11:33.435Z,66.80
2023-10-17T18:14:19.258Z,72.00
2023-10-17T18:16:56.344Z,77.00
2023-10-17T18:19:37.253Z,74.20
2023-10-17T18:22:10.367Z,69.50
2023-10-17T18:24:51.210Z,72.40
2023-10-17T18:27:26.108Z,75.90
2023-10-17T18:30:03.138Z,84.90
2023-10-17T18:32:43.450Z,99.60
2023-10-17T18:35:13.715Z,88.60
2023-10-17T18:37:43.917Z,90.70
2023-10-17T18:40:29.442Z,89.90
2023-10-17T18:43:24.008Z,94.80
2023-10-17T18:46:02.132Z,92.80
2023-10-17T18:48:35.393Z,87.60
2023-10-17T18:52:04.061Z,95.00
2023-10-17T18:55:11.760Z,90.80
2023-10-17T18:58:14.977Z,93.60
2023-10-17T19:01:10.525Z,93.50
2023-10-17T19:04:00.463Z,94.10
2023-10-17T19:06:34.827Z,95.90
2023-10-17T19:09:12.699Z,94.50
2023-10-17T19:12:14.723Z,97.60
2023-10-17T19:18:30.190Z,113.20
2023-10-17T19:21:06.100Z,109.30
2023-10-17T19:23:42.906Z,105.70
2023-10-17T19:26:21.904Z,102.30
2023-10-17T19:28:53.150Z,103.50
2023-10-17T19:31:25.502Z,106.40
2023-10-17T19:34:03.806Z,101.30
2023-10-17T19:36:40.325Z,98.10
2023-10-17T19:39:11.701Z,100.30
2023-10-17T19:44:25.232Z,95.50
2023-10-17T19:47:01.421Z,92.70
2023-10-17T19:49:34.462Z,96.70
2023-10-17T19:52:05.814Z,95.80
2023-10-17T19:54:39.551Z,98.70
2023-10-17T19:57:12.789Z,98.30
2023-10-17T19:59:43.355Z,101.50
2023-10-17T20:02:13.728Z,107.30
2023-10-17T20:04:44.699Z,103.30
2023-10-17T20:07:21.391Z,105.20
2023-10-17T20:09:54.116Z,105.40
2023-10-17T20:12:34.804Z,104.70
2023-10-17T20:15:12.346Z,128.00
2023-10-17T20:20:24.738Z,119.70
2023-10-17T20:22:59.201Z,121.30
2023-10-17T20:25:33.732Z,126.20
2023-10-17T20:28:14.526Z,124.50
2023-10-17T20:30:45.164Z,124.20
2023-10-17T20:33:25.460Z,127.70
2023-10-17T20:36:05.965Z,128.20
2023-10-17T20:38:37.090Z,123.70
2023-10-17T20:41:20.523Z,125.80
2023-10-17T20:43:52.011Z,126.30
2023-10-17T20:46:35.160Z,127.70
2023-10-17T20:49:09.676Z,126.00
2023-10-17T20:52:08.045Z,129.30
2023-10-17T20:54:52.970Z,124.90
2023-10-17T20:57:26.987Z,129.10
2023-10-17T21:00:04.495Z,135.40
2023-10-17T21:02:40.455Z,135.00
2023-10-17T21:05:13.925Z,132.30
2023-10-17T21:07:44.543Z,129.80
2023-10-17T21:10:15.152Z,130.90
2023-10-17T21:12:45.784Z,135.20
2023-10-17T21:15:47.787Z,135.10
2023-10-17T21:18:39.843Z,138.40
2023-10-17T21:21:27.855Z,139.30
2023-10-17T21:23:59.491Z,135.10
2023-10-17T21:26:32.638Z,135.00
2023-10-17T21:29:15.736Z,132.70
2023-10-17T21:31:53.640Z,131.40
2023-10-17T21:34:35.530Z,124.50
2023-10-17T21:37:07.813Z,121.10
2023-10-17T21:39:45.464Z,113.60
2023-10-17T21:42:16.009Z,118.30
2023-10-17T21:44:46.655Z,118.20
2023-10-17T21:47:20.828Z,117.20
2023-10-17T21:50:06.329Z,113.50
2023-10-17T21:52:39.362Z,112.40
2023-10-17T21:55:13.220Z,115.90
2023-10-17T21:57:47.126Z,118.60
2023-10-17T22:00:36.116Z,114.30
2023-10-17T22:03:09.112Z,112.70
2023-10-17T22:05:48.785Z,119.30
2023-10-17T22:08:22.136Z,117.00
2023-10-17T22:10:55.051Z,114.40
2023-10-17T22:13:28.139Z,111.80
2023-10-17T22:15:58.817Z,112.80
2023-10-17T22:18:29.217Z,108.50
2023-10-17T22:21:06.816Z,107.40
2023-10-17T22:23:38.355Z,109.30
2023-10-17T22:26:11.288Z,117.30
2023-10-17T22:28:42.736Z,112.40
2023-10-17T22:31:27.181Z,113.80
2023-10-17T22:33:58.454Z,107.30
2023-10-17T22:36:28.356Z,103.90
2023-10-17T22:38:59.102Z,103.30
2023-10-17T22:41:38.485Z,103.90
2023-10-17T22:44:12.371Z,99.10
2023-10-17T22:46:46.228Z,98.70
2023-10-17T22:49:19.484Z,94.50
2023-10-17T22:51:55.808Z,94.90
2023-10-17T22:54:26.474Z,91.90
2023-10-17T22:56:56.876Z,97.20
2023-10-17T22:59:27.326Z,94.60
2023-10-17T23:02:01.397Z,96.30
2023-10-17T23:04:37.330Z,90.10
2023-10-17T23:07:09.987Z,90.20
2023-10-17T23:09:40.552Z,89.90
2023-10-17T23:12:13.676Z,89.70
2023-10-17T23:14:48.472Z,90.60
2023-10-17T23:17:19.243Z,88.70
2023-10-17T23:19:56.075Z,87.50
2023-10-17T23:22:30.418Z,87.50
2023-10-17T23:25:04.454Z,87.90
2023-10-17T23:27:47.839Z,83.70
2023-10-17T23:30:21.637Z,85.60
2023-10-17T23:32:55.059Z,81.60
2023-10-17T23:35:30.765Z,81.10
2023-10-17T23:38:04.064Z,80.50
2023-10-17T23:40:34.580Z,82.40
2023-10-17T23:43:07.135Z,80.80
2023-10-17T23:45:44.000Z,79.40
2023-10-17T23:48:24.471Z,75.90
2023-10-17T23:50:57.061Z,77.90
2023-10-17T23:53:32.631Z,77.60
2023-10-17T23:56:10.970Z,76.10
2023-10-17T23:58:44.102Z,74.90
